sensor_id;sensor_type;location;lat;lon;timestamp;P1;durP1;ratioP1;P2;durP2;ratioP2
11797;SDS011;5956;51.428;6.682;2024-01-10T00:02:22;7.30;;;5.47;;
11797;SDS011;5956;51.428;6.682;2024-01-10T00:04:48;9.83;;;6.27;;
11797;SDS011;5956;51.428;6.682;2024-01-10T00:07:15;8.50;;;6.27;;
11797;SDS011;5956;51.428;6.682;2024-01-10T00:09:42;7.87;;;5.93;;
11797;SDS011;5956;51.428;6.682;2024-01-10T00:12:08;8.47;;;5.63;;
11797;SDS011;5956;51.428;6.682;2024-01-10T00:14:36;8.27;;;6.40;;
11797;SDS011;5956;51.428;6.682;2024-01-10T00:17:02;10.13;;;6.60;;
11797;SDS011;5956;51.428;6.682;2024-01-10T00:19:29;7.33;;;5.57;;
11797;SDS011;5956;51.428;6.682;2024-01-10T00:21:55;7.13;;;5.50;;
11797;SDS011;5956;51.428;6.682;2024-01-10T00:24:22;7.97;;;6.17;;
11797;SDS011;5956;51.428;6.682;2024-01-10T00:26:48;8.00;;;5.97;;
11797;SDS011;5956;51.428;6.682;2024-01-10T00:29:15;7.77;;;6.10;;
11797;SDS011;5956;51.428;6.682;2024-01-10T00:31:42;8.53;;;6.20;;
11797;SDS011;5956;51.428;6.682;2024-01-10T00:34:09;8.20;;;6.33;;
11797;SDS011;5956;51.428;6.682;2024-01-10T00:36:35;8.03;;;6.10;;
11797;SDS011;5956;51.428;6.682;2024-01-10T00:39:02;6.23;;;5.40;;
11797;SDS011;5956;51.428;6.682;2024-01-10T00:41:28;9.50;;;6.43;;
11797;SDS011;5956;51.428;6.682;2024-01-10T00:43:55;9.17;;;5.93;;
11797;SDS011;5956;51.428;6.682;2024-01-10T00:46:21;9.17;;;6.37;;
11797;SDS011;5956;51.428;6.682;2024-01-10T00:48:49;9.53;;;6.77;;
11797;SDS011;5956;51.428;6.682;2024-01-10T00:51:15;7.13;;;5.63;;
11797;SDS011;5956;51.428;6.682;2024-01-10T00:53:42;8.10;;;5.90;;
11797;SDS011;5956;51.428;6.682;2024-01-10T00:56:08;7.60;;;5.90;;
11797;SDS011;5956;51.428;6.682;2024-01-10T00:58:38;8.87;;;6.07;;
11797;SDS011;5956;51.428;6.682;2024-01-10T01:01:04;8.03;;;6.60;;
11797;SDS011;5956;51.428;6.682;2024-01-10T01:03:30;9.50;;;6.00;;
11797;SDS011;5956;51.428;6.682;2024-01-10T01:05:58;9.40;;;6.20;;
11797;SDS011;5956;51.428;6.682;2024-01-10T01:08:25;9.40;;;5.70;;
11797;SDS011;5956;51.428;6.682;2024-01-10T01:10:51;7.60;;;5.23;;
11797;SDS011;5956;51.428;6.682;2024-01-10T01:13:18;8.70;;;6.00;;
11797;SDS011;5956;51.428;6.682;2024-01-10T01:15:44;7.80;;;5.33;;
11797;SDS011;5956;51.428;6.682;2024-01-10T01:18:11;9.23;;;6.10;;
11797;SDS011;5956;51.428;6.682;2024-01-10T01:20:38;6.50;;;5.50;;
11797;SDS011;5956;51.428;6.682;2024-01-10T01:23:06;7.57;;;6.23;;
11797;SDS011;5956;51.428;6.682;2024-01-10T01:25:32;8.17;;;5.93;;
11797;SDS011;5956;51.428;6.682;2024-01-10T01:27:58;8.27;;;6.10;;
11797;SDS011;5956;51.428;6.682;2024-01-10T01:30:25;7.77;;;5.40;;
11797;SDS011;5956;51.428;6.682;2024-01-10T01:32:51;8.37;;;6.20;;
11797;SDS011;5956;51.428;6.682;2024-01-10T01:35:18;13.83;;;6.03;;
11797;SDS011;5956;51.428;6.682;2024-01-10T01:37:47;8.00;;;6.00;;
11797;SDS011;5956;51.428;6.682;2024-01-10T01:40:15;8.23;;;5.90;;
11797;SDS011;5956;51.428;6.682;2024-01-10T01:42:43;10.83;;;6.97;;
11797;SDS011;5956;51.428;6.682;2024-01-10T01:45:10;7.50;;;6.00;;
11797;SDS011;5956;51.428;6.682;2024-01-10T01:47:37;7.80;;;6.17;;
11797;SDS011;5956;51.428;6.682;2024-01-10T01:50:03;6.07;;;5.33;;
11797;SDS011;5956;51.428;6.682;2024-01-10T01:52:30;8.53;;;6.50;;
11797;SDS011;5956;51.428;6.682;2024-01-10T01:54:57;9.13;;;6.00;;
11797;SDS011;5956;51.428;6.682;2024-01-10T01:57:25;8.93;;;6.57;;
11797;SDS011;5956;51.428;6.682;2024-01-10T01:59:51;10.83;;;6.67;;
11797;SDS011;5956;51.428;6.682;2024-01-10T02:02:17;8.30;;;5.93;;
11797;SDS011;5956;51.428;6.682;2024-01-10T02:04:44;9.77;;;6.33;;
11797;SDS011;5956;51.428;6.682;2024-01-10T02:07:11;8.60;;;6.60;;
11797;SDS011;5956;51.428;6.682;2024-01-10T02:09:37;9.40;;;6.27;;
11797;SDS011;5956;51.428;6.682;2024-01-10T02:12:04;9.00;;;5.77;;
11797;SDS011;5956;51.428;6.682;2024-01-10T02:14:32;8.50;;;6.60;;
11797;SDS011;5956;51.428;6.682;2024-01-10T02:16:59;8.97;;;6.47;;
11797;SDS011;5956;51.428;6.682;2024-01-10T02:19:26;9.33;;;6.30;;
11797;SDS011;5956;51.428;6.682;2024-01-10T02:21:54;8.00;;;5.93;;
11797;SDS011;5956;51.428;6.682;2024-01-10T02:24:21;7.80;;;6.23;;
11797;SDS011;5956;51.428;6.682;2024-01-10T02:26:49;12.63;;;6.47;;
11797;SDS011;5956;51.428;6.682;2024-01-10T02:29:16;10.43;;;6.47;;
11797;SDS011;5956;51.428;6.682;2024-01-10T02:31:42;7.53;;;6.07;;
11797;SDS011;5956;51.428;6.682;2024-01-10T02:34:09;8.93;;;6.47;;
11797;SDS011;5956;51.428;6.682;2024-01-10T02:36:35;9.80;;;6.60;;
11797;SDS011;5956;51.428;6.682;2024-01-10T02:39:02;9.97;;;6.70;;
11797;SDS011;5956;51.428;6.682;2024-01-10T02:41:28;12.30;;;6.70;;
11797;SDS011;5956;51.428;6.682;2024-01-10T02:43:56;7.80;;;6.00;;
11797;SDS011;5956;51.428;6.682;2024-01-10T02:46:24;9.83;;;6.23;;
11797;SDS011;5956;51.428;6.682;2024-01-10T02:48:52;9.70;;;6.53;;
11797;SDS011;5956;51.428;6.682;2024-01-10T02:51:19;8.80;;;6.43;;
11797;SDS011;5956;51.428;6.682;2024-01-10T02:53:46;10.37;;;6.77;;
11797;SDS011;5956;51.428;6.682;2024-01-10T02:56:12;10.93;;;6.90;;
11797;SDS011;5956;51.428;6.682;2024-01-10T02:58:39;13.93;;;6.80;;
11797;SDS011;5956;51.428;6.682;2024-01-10T03:01:07;7.50;;;6.67;;
11797;SDS011;5956;51.428;6.682;2024-01-10T03:03:34;8.33;;;6.60;;
11797;SDS011;5956;51.428;6.682;2024-01-10T03:06:00;9.17;;;6.40;;
11797;SDS011;5956;51.428;6.682;2024-01-10T03:08:27;12.30;;;6.60;;
11797;SDS011;5956;51.428;6.682;2024-01-10T03:10:53;9.37;;;6.83;;
11797;SDS011;5956;51.428;6.682;2024-01-10T03:13:20;9.77;;;6.60;;
11797;SDS011;5956;51.428;6.682;2024-01-10T03:15:46;7.50;;;6.07;;
11797;SDS011;5956;51.428;6.682;2024-01-10T03:18:14;11.03;;;7.27;;
11797;SDS011;5956;51.428;6.682;2024-01-10T03:20:40;9.23;;;6.77;;
11797;SDS011;5956;51.428;6.682;2024-01-10T03:23:07;11.90;;;6.90;;
11797;SDS011;5956;51.428;6.682;2024-01-10T03:25:33;10.23;;;6.87;;
11797;SDS011;5956;51.428;6.682;2024-01-10T03:28:00;7.27;;;6.10;;
11797;SDS011;5956;51.428;6.682;2024-01-10T03:30:26;9.10;;;6.30;;
11797;SDS011;5956;51.428;6.682;2024-01-10T03:32:53;8.77;;;6.40;;
11797;SDS011;5956;51.428;6.682;2024-01-10T03:35:20;11.47;;;6.97;;
11797;SDS011;5956;51.428;6.682;2024-01-10T03:37:47;10.07;;;6.80;;
11797;SDS011;5956;51.428;6.682;2024-01-10T03:40:13;10.43;;;6.13;;
11797;SDS011;5956;51.428;6.682;2024-01-10T03:42:40;11.13;;;6.70;;
11797;SDS011;5956;51.428;6.682;2024-01-10T03:45:06;8.43;;;6.30;;
11797;SDS011;5956;51.428;6.682;2024-01-10T03:47:33;10.50;;;6.83;;
11797;SDS011;5956;51.428;6.682;2024-01-10T03:49:59;8.17;;;7.33;;
11797;SDS011;5956;51.428;6.682;2024-01-10T03:52:27;8.10;;;6.47;;
11797;SDS011;5956;51.428;6.682;2024-01-10T03:54:53;9.63;;;6.77;;
11797;SDS011;5956;51.428;6.682;2024-01-10T03:57:20;13.13;;;6.80;;
11797;SDS011;5956;51.428;6.682;2024-01-10T03:59:46;10.03;;;6.73;;
11797;SDS011;5956;51.428;6.682;2024-01-10T04:02:13;11.80;;;6.80;;
11797;SDS011;5956;51.428;6.682;2024-01-10T04:04:39;9.47;;;6.87;;
11797;SDS011;5956;51.428;6.682;2024-01-10T04:07:06;9.07;;;6.83;;
11797;SDS011;5956;51.428;6.682;2024-01-10T04:09:35;8.63;;;6.70;;
11797;SDS011;5956;51.428;6.682;2024-01-10T04:12:01;11.13;;;7.07;;
11797;SDS011;5956;51.428;6.682;2024-01-10T04:14:28;10.00;;;7.03;;
11797;SDS011;5956;51.428;6.682;2024-01-10T04:16:54;8.17;;;6.03;;
11797;SDS011;5956;51.428;6.682;2024-01-10T04:19:21;12.17;;;7.47;;
11797;SDS011;5956;51.428;6.682;2024-01-10T04:21:47;11.00;;;7.30;;
11797;SDS011;5956;51.428;6.682;2024-01-10T04:24:13;9.13;;;6.57;;
11797;SDS011;5956;51.428;6.682;2024-01-10T04:26:41;12.20;;;6.93;;
11797;SDS011;5956;51.428;6.682;2024-01-10T04:29:08;10.77;;;7.17;;
11797;SDS011;5956;51.428;6.682;2024-01-10T04:31:34;11.67;;;7.30;;
11797;SDS011;5956;51.428;6.682;2024-01-10T04:34:02;9.67;;;7.10;;
11797;SDS011;5956;51.428;6.682;2024-01-10T04:36:28;9.30;;;6.90;;
11797;SDS011;5956;51.428;6.682;2024-01-10T04:38:55;9.00;;;6.60;;
11797;SDS011;5956;51.428;6.682;2024-01-10T04:41:22;9.47;;;7.23;;
11797;SDS011;5956;51.428;6.682;2024-01-10T04:43:50;10.87;;;7.17;;
11797;SDS011;5956;51.428;6.682;2024-01-10T04:46:16;11.00;;;7.17;;
11797;SDS011;5956;51.428;6.682;2024-01-10T04:48:43;10.37;;;7.17;;
11797;SDS011;5956;51.428;6.682;2024-01-10T04:51:09;9.83;;;6.80;;
11797;SDS011;5956;51.428;6.682;2024-01-10T04:53:35;12.30;;;7.37;;
11797;SDS011;5956;51.428;6.682;2024-01-10T04:56:02;10.37;;;7.77;;
11797;SDS011;5956;51.428;6.682;2024-01-10T04:58:28;12.33;;;7.17;;
11797;SDS011;5956;51.428;6.682;2024-01-10T05:00:56;11.10;;;6.80;;
11797;SDS011;5956;51.428;6.682;2024-01-10T05:03:23;11.60;;;7.07;;
11797;SDS011;5956;51.428;6.682;2024-01-10T05:05:49;10.50;;;7.00;;
11797;SDS011;5956;51.428;6.682;2024-01-10T05:08:16;11.60;;;7.63;;
11797;SDS011;5956;51.428;6.682;2024-01-10T05:10:45;11.93;;;7.07;;
11797;SDS011;5956;51.428;6.682;2024-01-10T05:13:11;11.83;;;7.90;;
11797;SDS011;5956;51.428;6.682;2024-01-10T05:15:38;9.30;;;7.00;;
11797;SDS011;5956;51.428;6.682;2024-01-10T05:18:06;11.67;;;7.13;;
11797;SDS011;5956;51.428;6.682;2024-01-10T05:20:32;12.13;;;7.47;;
11797;SDS011;5956;51.428;6.682;2024-01-10T05:22:59;10.43;;;7.23;;
11797;SDS011;5956;51.428;6.682;2024-01-10T05:25:26;10.87;;;7.17;;
11797;SDS011;5956;51.428;6.682;2024-01-10T05:27:54;13.13;;;7.40;;
11797;SDS011;5956;51.428;6.682;2024-01-10T05:30:21;10.00;;;7.63;;
11797;SDS011;5956;51.428;6.682;2024-01-10T05:32:47;12.27;;;8.00;;
11797;SDS011;5956;51.428;6.682;2024-01-10T05:35:15;11.53;;;7.57;;
11797;SDS011;5956;51.428;6.682;2024-01-10T05:37:42;12.63;;;7.50;;
11797;SDS011;5956;51.428;6.682;2024-01-10T05:40:09;9.63;;;6.67;;
11797;SDS011;5956;51.428;6.682;2024-01-10T05:42:35;10.80;;;6.87;;
11797;SDS011;5956;51.428;6.682;2024-01-10T05:45:03;11.60;;;9.25;;
11797;SDS011;5956;51.428;6.682;2024-01-10T05:47:31;12.90;;;7.90;;
11797;SDS011;5956;51.428;6.682;2024-01-10T05:49:58;10.83;;;7.37;;
11797;SDS011;5956;51.428;6.682;2024-01-10T05:52:27;13.30;;;8.10;;
11797;SDS011;5956;51.428;6.682;2024-01-10T05:54:53;11.90;;;7.37;;
11797;SDS011;5956;51.428;6.682;2024-01-10T05:57:19;10.03;;;7.60;;
11797;SDS011;5956;51.428;6.682;2024-01-10T05:59:47;11.77;;;7.67;;
11797;SDS011;5956;51.428;6.682;2024-01-10T06:02:13;15.13;;;7.67;;
11797;SDS011;5956;51.428;6.682;2024-01-10T06:04:41;9.57;;;6.97;;
11797;SDS011;5956;51.428;6.682;2024-01-10T06:07:08;9.77;;;7.93;;
11797;SDS011;5956;51.428;6.682;2024-01-10T06:09:37;11.17;;;7.30;;
11797;SDS011;5956;51.428;6.682;2024-01-10T06:12:05;12.37;;;7.87;;
11797;SDS011;5956;51.428;6.682;2024-01-10T06:14:32;10.60;;;7.93;;
11797;SDS011;5956;51.428;6.682;2024-01-10T06:16:59;10.63;;;7.80;;
11797;SDS011;5956;51.428;6.682;2024-01-10T06:19:26;11.97;;;7.30;;
11797;SDS011;5956;51.428;6.682;2024-01-10T06:21:52;12.27;;;8.30;;
11797;SDS011;5956;51.428;6.682;2024-01-10T06:24:19;7.87;;;4.30;;
11797;SDS011;5956;51.428;6.682;2024-01-10T06:26:47;11.23;;;5.93;;
11797;SDS011;5956;51.428;6.682;2024-01-10T06:29:14;11.07;;;8.10;;
11797;SDS011;5956;51.428;6.682;2024-01-10T06:31:41;13.07;;;8.17;;
11797;SDS011;5956;51.428;6.682;2024-01-10T06:34:07;9.30;;;7.90;;
11797;SDS011;5956;51.428;6.682;2024-01-10T06:36:34;12.73;;;7.70;;
11797;SDS011;5956;51.428;6.682;2024-01-10T06:39:01;12.33;;;7.43;;
11797;SDS011;5956;51.428;6.682;2024-01-10T06:41:27;12.23;;;7.83;;
11797;SDS011;5956;51.428;6.682;2024-01-10T06:43:55;10.77;;;7.43;;
11797;SDS011;5956;51.428;6.682;2024-01-10T06:46:21;11.10;;;8.20;;
11797;SDS011;5956;51.428;6.682;2024-01-10T06:48:48;13.13;;;8.23;;
11797;SDS011;5956;51.428;6.682;2024-01-10T06:51:15;13.93;;;8.23;;
11797;SDS011;5956;51.428;6.682;2024-01-10T06:53:41;10.80;;;7.57;;
11797;SDS011;5956;51.428;6.682;2024-01-10T06:56:09;13.57;;;7.87;;
11797;SDS011;5956;51.428;6.682;2024-01-10T06:58:35;12.93;;;7.33;;
11797;SDS011;5956;51.428;6.682;2024-01-10T07:01:03;10.07;;;7.50;;
11797;SDS011;5956;51.428;6.682;2024-01-10T07:03:30;15.70;;;8.37;;
11797;SDS011;5956;51.428;6.682;2024-01-10T07:05:57;10.40;;;7.73;;
11797;SDS011;5956;51.428;6.682;2024-01-10T07:08:23;11.30;;;8.50;;
11797;SDS011;5956;51.428;6.682;2024-01-10T07:10:50;11.77;;;7.90;;
11797;SDS011;5956;51.428;6.682;2024-01-10T07:13:16;10.87;;;7.33;;
11797;SDS011;5956;51.428;6.682;2024-01-10T07:15:42;15.30;;;8.97;;
11797;SDS011;5956;51.428;6.682;2024-01-10T07:18:10;12.90;;;7.97;;
11797;SDS011;5956;51.428;6.682;2024-01-10T07:20:37;12.73;;;8.17;;
11797;SDS011;5956;51.428;6.682;2024-01-10T07:23:04;10.30;;;7.47;;
11797;SDS011;5956;51.428;6.682;2024-01-10T07:25:30;14.10;;;8.60;;
11797;SDS011;5956;51.428;6.682;2024-01-10T07:27:57;12.70;;;8.43;;
11797;SDS011;5956;51.428;6.682;2024-01-10T07:30:24;12.93;;;8.50;;
11797;SDS011;5956;51.428;6.682;2024-01-10T07:32:50;13.13;;;8.70;;
11797;SDS011;5956;51.428;6.682;2024-01-10T07:35:18;11.50;;;8.27;;
11797;SDS011;5956;51.428;6.682;2024-01-10T07:37:46;12.13;;;8.47;;
11797;SDS011;5956;51.428;6.682;2024-01-10T07:40:12;11.20;;;8.37;;
11797;SDS011;5956;51.428;6.682;2024-01-10T07:42:39;12.57;;;8.57;;
11797;SDS011;5956;51.428;6.682;2024-01-10T07:45:05;13.77;;;9.13;;
11797;SDS011;5956;51.428;6.682;2024-01-10T07:47:33;14.27;;;8.97;;
11797;SDS011;5956;51.428;6.682;2024-01-10T07:50:02;12.13;;;8.13;;
11797;SDS011;5956;51.428;6.682;2024-01-10T07:52:30;12.73;;;8.50;;
11797;SDS011;5956;51.428;6.682;2024-01-10T07:54:57;15.20;;;9.73;;
11797;SDS011;5956;51.428;6.682;2024-01-10T07:57:23;10.87;;;8.13;;
11797;SDS011;5956;51.428;6.682;2024-01-10T07:59:49;15.90;;;9.97;;
11797;SDS011;5956;51.428;6.682;2024-01-10T08:02:16;14.57;;;9.93;;
11797;SDS011;5956;51.428;6.682;2024-01-10T08:04:42;12.07;;;8.80;;
11797;SDS011;5956;51.428;6.682;2024-01-10T08:07:09;13.10;;;8.40;;
11797;SDS011;5956;51.428;6.682;2024-01-10T08:09:37;11.10;;;8.53;;
11797;SDS011;5956;51.428;6.682;2024-01-10T08:12:04;14.80;;;9.03;;
11797;SDS011;5956;51.428;6.682;2024-01-10T08:14:30;12.73;;;9.17;;
11797;SDS011;5956;51.428;6.682;2024-01-10T08:16:57;15.60;;;9.57;;
11797;SDS011;5956;51.428;6.682;2024-01-10T08:19:24;13.87;;;9.10;;
11797;SDS011;5956;51.428;6.682;2024-01-10T08:21:51;11.77;;;8.73;;
11797;SDS011;5956;51.428;6.682;2024-01-10T08:24:18;18.87;;;9.57;;
11797;SDS011;5956;51.428;6.682;2024-01-10T08:26:45;13.97;;;9.20;;
11797;SDS011;5956;51.428;6.682;2024-01-10T08:29:12;13.47;;;9.60;;
11797;SDS011;5956;51.428;6.682;2024-01-10T08:31:40;13.53;;;9.30;;
11797;SDS011;5956;51.428;6.682;2024-01-10T08:34:06;12.33;;;8.90;;
11797;SDS011;5956;51.428;6.682;2024-01-10T08:36:33;17.53;;;10.63;;
11797;SDS011;5956;51.428;6.682;2024-01-10T08:38:59;12.77;;;9.13;;
11797;SDS011;5956;51.428;6.682;2024-01-10T08:41:28;13.90;;;9.60;;
11797;SDS011;5956;51.428;6.682;2024-01-10T08:43:56;15.47;;;9.87;;
11797;SDS011;5956;51.428;6.682;2024-01-10T08:46:23;16.60;;;10.23;;
11797;SDS011;5956;51.428;6.682;2024-01-10T08:48:49;15.67;;;10.67;;
11797;SDS011;5956;51.428;6.682;2024-01-10T08:51:16;14.53;;;9.30;;
11797;SDS011;5956;51.428;6.682;2024-01-10T08:53:42;14.47;;;9.77;;
11797;SDS011;5956;51.428;6.682;2024-01-10T08:56:09;14.87;;;10.07;;
11797;SDS011;5956;51.428;6.682;2024-01-10T08:58:35;17.87;;;9.80;;
11797;SDS011;5956;51.428;6.682;2024-01-10T09:01:03;18.27;;;10.50;;
11797;SDS011;5956;51.428;6.682;2024-01-10T09:03:31;18.30;;;10.30;;
11797;SDS011;5956;51.428;6.682;2024-01-10T09:05:58;13.90;;;9.70;;
11797;SDS011;5956;51.428;6.682;2024-01-10T09:08:24;16.80;;;10.23;;
11797;SDS011;5956;51.428;6.682;2024-01-10T09:10:50;15.30;;;10.57;;
11797;SDS011;5956;51.428;6.682;2024-01-10T09:13:17;13.20;;;9.33;;
11797;SDS011;5956;51.428;6.682;2024-01-10T09:15:43;15.50;;;10.13;;
11797;SDS011;5956;51.428;6.682;2024-01-10T09:18:11;14.63;;;9.73;;
11797;SDS011;5956;51.428;6.682;2024-01-10T09:20:38;13.13;;;9.93;;
11797;SDS011;5956;51.428;6.682;2024-01-10T09:23:05;12.70;;;9.63;;
11797;SDS011;5956;51.428;6.682;2024-01-10T09:25:31;17.53;;;11.27;;
11797;SDS011;5956;51.428;6.682;2024-01-10T09:27:58;18.37;;;11.80;;
11797;SDS011;5956;51.428;6.682;2024-01-10T09:30:24;19.73;;;12.40;;
11797;SDS011;5956;51.428;6.682;2024-01-10T09:32:51;17.67;;;11.80;;
11797;SDS011;5956;51.428;6.682;2024-01-10T09:35:18;17.60;;;10.47;;
11797;SDS011;5956;51.428;6.682;2024-01-10T09:37:45;14.77;;;11.43;;
11797;SDS011;5956;51.428;6.682;2024-01-10T09:40:12;13.63;;;10.73;;
11797;SDS011;5956;51.428;6.682;2024-01-10T09:42:39;16.03;;;11.77;;
11797;SDS011;5956;51.428;6.682;2024-01-10T09:45:07;17.90;;;10.30;;
11797;SDS011;5956;51.428;6.682;2024-01-10T09:47:34;15.77;;;10.70;;
11797;SDS011;5956;51.428;6.682;2024-01-10T09:50:02;17.93;;;11.70;;
11797;SDS011;5956;51.428;6.682;2024-01-10T09:52:32;17.67;;;12.37;;
11797;SDS011;5956;51.428;6.682;2024-01-10T09:55:00;20.77;;;12.03;;
11797;SDS011;5956;51.428;6.682;2024-01-10T09:57:27;18.00;;;11.87;;
11797;SDS011;5956;51.428;6.682;2024-01-10T09:59:54;17.87;;;12.33;;
11797;SDS011;5956;51.428;6.682;2024-01-10T10:02:20;17.63;;;11.83;;
11797;SDS011;5956;51.428;6.682;2024-01-10T10:04:49;19.13;;;11.87;;
11797;SDS011;5956;51.428;6.682;2024-01-10T10:07:18;15.67;;;11.23;;
11797;SDS011;5956;51.428;6.682;2024-01-10T10:09:46;20.60;;;12.17;;
11797;SDS011;5956;51.428;6.682;2024-01-10T10:12:13;22.53;;;11.97;;
11797;SDS011;5956;51.428;6.682;2024-01-10T10:14:39;18.40;;;12.03;;
11797;SDS011;5956;51.428;6.682;2024-01-10T10:17:13;17.07;;;12.50;;
11797;SDS011;5956;51.428;6.682;2024-01-10T10:19:40;17.13;;;12.17;;
11797;SDS011;5956;51.428;6.682;2024-01-10T10:22:07;19.50;;;13.10;;
11797;SDS011;5956;51.428;6.682;2024-01-10T10:24:34;21.70;;;12.77;;
11797;SDS011;5956;51.428;6.682;2024-01-10T10:27:02;19.47;;;12.70;;
11797;SDS011;5956;51.428;6.682;2024-01-10T10:29:35;19.40;;;12.77;;
11797;SDS011;5956;51.428;6.682;2024-01-10T10:32:03;17.20;;;12.90;;
11797;SDS011;5956;51.428;6.682;2024-01-10T10:34:30;19.10;;;13.87;;
11797;SDS011;5956;51.428;6.682;2024-01-10T10:36:57;17.17;;;13.13;;
11797;SDS011;5956;51.428;6.682;2024-01-10T10:39:23;19.17;;;14.70;;
11797;SDS011;5956;51.428;6.682;2024-01-10T10:41:50;19.67;;;13.53;;
11797;SDS011;5956;51.428;6.682;2024-01-10T10:44:21;22.20;;;14.10;;
11797;SDS011;5956;51.428;6.682;2024-01-10T10:46:49;21.70;;;12.90;;
11797;SDS011;5956;51.428;6.682;2024-01-10T10:49:18;19.13;;;13.73;;
11797;SDS011;5956;51.428;6.682;2024-01-10T10:51:48;18.37;;;12.47;;
11797;SDS011;5956;51.428;6.682;2024-01-10T10:54:15;19.17;;;13.07;;
11797;SDS011;5956;51.428;6.682;2024-01-10T10:56:44;19.47;;;13.43;;
11797;SDS011;5956;51.428;6.682;2024-01-10T10:59:10;22.13;;;14.03;;
11797;SDS011;5956;51.428;6.682;2024-01-10T11:01:40;18.23;;;12.83;;
11797;SDS011;5956;51.428;6.682;2024-01-10T11:04:07;17.53;;;13.40;;
11797;SDS011;5956;51.428;6.682;2024-01-10T11:06:34;17.70;;;12.50;;
11797;SDS011;5956;51.428;6.682;2024-01-10T11:09:02;20.37;;;14.87;;
11797;SDS011;5956;51.428;6.682;2024-01-10T11:11:33;19.83;;;14.20;;
11797;SDS011;5956;51.428;6.682;2024-01-10T11:14:15;18.83;;;13.87;;
11797;SDS011;5956;51.428;6.682;2024-01-10T11:19:49;19.83;;;14.60;;
11797;SDS011;5956;51.428;6.682;2024-01-10T11:22:26;17.83;;;13.63;;
11797;SDS011;5956;51.428;6.682;2024-01-10T11:24:58;19.90;;;14.10;;
11797;SDS011;5956;51.428;6.682;2024-01-10T11:27:25;16.80;;;13.03;;
11797;SDS011;5956;51.428;6.682;2024-01-10T11:29:52;21.17;;;14.90;;
11797;SDS011;5956;51.428;6.682;2024-01-10T11:32:22;21.77;;;14.07;;
11797;SDS011;5956;51.428;6.682;2024-01-10T11:34:56;18.50;;;14.30;;
11797;SDS011;5956;51.428;6.682;2024-01-10T11:37:23;20.43;;;14.50;;
11797;SDS011;5956;51.428;6.682;2024-01-10T11:39:54;17.60;;;14.30;;
11797;SDS011;5956;51.428;6.682;2024-01-10T11:42:23;19.57;;;14.37;;
11797;SDS011;5956;51.428;6.682;2024-01-10T11:44:50;19.23;;;13.77;;
11797;SDS011;5956;51.428;6.682;2024-01-10T11:47:18;17.83;;;14.37;;
11797;SDS011;5956;51.428;6.682;2024-01-10T11:49:55;19.93;;;15.03;;
11797;SDS011;5956;51.428;6.682;2024-01-10T11:52:23;22.03;;;14.87;;
11797;SDS011;5956;51.428;6.682;2024-01-10T11:54:50;22.37;;;15.70;;
11797;SDS011;5956;51.428;6.682;2024-01-10T11:57:20;18.87;;;13.23;;
11797;SDS011;5956;51.428;6.682;2024-01-10T11:59:47;20.73;;;14.50;;
11797;SDS011;5956;51.428;6.682;2024-01-10T12:02:15;20.07;;;14.00;;
11797;SDS011;5956;51.428;6.682;2024-01-10T12:04:43;21.03;;;14.67;;
11797;SDS011;5956;51.428;6.682;2024-01-10T12:07:10;20.50;;;15.07;;
11797;SDS011;5956;51.428;6.682;2024-01-10T12:09:39;21.60;;;15.23;;
11797;SDS011;5956;51.428;6.682;2024-01-10T12:12:05;19.33;;;14.20;;
11797;SDS011;5956;51.428;6.682;2024-01-10T12:14:33;19.93;;;13.87;;
11797;SDS011;5956;51.428;6.682;2024-01-10T12:17:02;23.90;;;15.93;;
11797;SDS011;5956;51.428;6.682;2024-01-10T12:19:30;19.70;;;15.53;;
11797;SDS011;5956;51.428;6.682;2024-01-10T12:21:57;17.00;;;13.63;;
11797;SDS011;5956;51.428;6.682;2024-01-10T12:24:23;23.27;;;16.07;;
11797;SDS011;5956;51.428;6.682;2024-01-10T12:26:55;20.33;;;14.20;;
11797;SDS011;5956;51.428;6.682;2024-01-10T12:29:22;17.97;;;14.07;;
11797;SDS011;5956;51.428;6.682;2024-01-10T12:31:50;21.77;;;13.77;;
11797;SDS011;5956;51.428;6.682;2024-01-10T12:34:16;20.70;;;14.03;;
11797;SDS011;5956;51.428;6.682;2024-01-10T12:36:43;19.80;;;13.20;;
11797;SDS011;5956;51.428;6.682;2024-01-10T12:39:12;21.30;;;15.07;;
11797;SDS011;5956;51.428;6.682;2024-01-10T12:41:38;18.57;;;14.17;;
11797;SDS011;5956;51.428;6.682;2024-01-10T12:44:08;21.43;;;14.87;;
11797;SDS011;5956;51.428;6.682;2024-01-10T12:46:48;20.07;;;13.73;;
11797;SDS011;5956;51.428;6.682;2024-01-10T12:49:15;21.80;;;14.60;;
11797;SDS011;5956;51.428;6.682;2024-01-10T12:51:44;17.50;;;13.73;;
11797;SDS011;5956;51.428;6.682;2024-01-10T12:54:13;18.30;;;13.30;;
11797;SDS011;5956;51.428;6.682;2024-01-10T12:56:39;21.07;;;14.07;;
11797;SDS011;5956;51.428;6.682;2024-01-10T12:59:08;24.07;;;15.43;;
11797;SDS011;5956;51.428;6.682;2024-01-10T13:01:36;21.20;;;15.30;;
11797;SDS011;5956;51.428;6.682;2024-01-10T13:04:04;22.87;;;16.67;;
11797;SDS011;5956;51.428;6.682;2024-01-10T13:06:32;18.23;;;14.33;;
11797;SDS011;5956;51.428;6.682;2024-01-10T13:08:59;22.23;;;15.27;;
11797;SDS011;5956;51.428;6.682;2024-01-10T13:11:25;20.93;;;14.23;;
11797;SDS011;5956;51.428;6.682;2024-01-10T13:13:52;20.13;;;13.80;;
11797;SDS011;5956;51.428;6.682;2024-01-10T13:16:21;24.47;;;14.93;;
11797;SDS011;5956;51.428;6.682;2024-01-10T13:18:49;21.93;;;16.23;;
11797;SDS011;5956;51.428;6.682;2024-01-10T13:21:16;19.93;;;14.20;;
11797;SDS011;5956;51.428;6.682;2024-01-10T13:23:43;19.60;;;13.93;;
11797;SDS011;5956;51.428;6.682;2024-01-10T13:26:12;21.03;;;14.43;;
11797;SDS011;5956;51.428;6.682;2024-01-10T13:28:40;18.37;;;14.50;;
11797;SDS011;5956;51.428;6.682;2024-01-10T13:31:07;21.80;;;15.00;;
11797;SDS011;5956;51.428;6.682;2024-01-10T13:33:36;18.97;;;14.57;;
11797;SDS011;5956;51.428;6.682;2024-01-10T13:36:03;17.87;;;14.00;;
11797;SDS011;5956;51.428;6.682;2024-01-10T13:38:31;22.27;;;14.13;;
11797;SDS011;5956;51.428;6.682;2024-01-10T13:40:58;20.33;;;15.60;;
11797;SDS011;5956;51.428;6.682;2024-01-10T13:43:24;21.53;;;15.47;;
11797;SDS011;5956;51.428;6.682;2024-01-10T13:45:51;22.30;;;14.87;;
11797;SDS011;5956;51.428;6.682;2024-01-10T13:48:18;18.47;;;13.83;;
11797;SDS011;5956;51.428;6.682;2024-01-10T13:50:47;21.07;;;15.20;;
11797;SDS011;5956;51.428;6.682;2024-01-10T13:53:14;23.67;;;14.57;;
11797;SDS011;5956;51.428;6.682;2024-01-10T13:55:42;20.97;;;14.50;;
11797;SDS011;5956;51.428;6.682;2024-01-10T13:58:08;21.40;;;14.40;;
11797;SDS011;5956;51.428;6.682;2024-01-10T14:00:35;22.37;;;16.03;;
11797;SDS011;5956;51.428;6.682;2024-01-10T14:03:03;25.53;;;15.77;;
11797;SDS011;5956;51.428;6.682;2024-01-10T14:05:29;22.50;;;15.30;;
11797;SDS011;5956;51.428;6.682;2024-01-10T14:07:57;19.20;;;15.37;;
11797;SDS011;5956;51.428;6.682;2024-01-10T14:10:23;18.10;;;13.63;;
11797;SDS011;5956;51.428;6.682;2024-01-10T14:12:50;19.70;;;15.07;;
11797;SDS011;5956;51.428;6.682;2024-01-10T14:15:16;19.00;;;14.40;;
11797;SDS011;5956;51.428;6.682;2024-01-10T14:17:43;25.30;;;17.43;;
11797;SDS011;5956;51.428;6.682;2024-01-10T14:20:10;22.97;;;15.80;;
11797;SDS011;5956;51.428;6.682;2024-01-10T14:22:38;23.47;;;15.67;;
11797;SDS011;5956;51.428;6.682;2024-01-10T14:25:07;23.23;;;15.60;;
11797;SDS011;5956;51.428;6.682;2024-01-10T14:27:34;20.83;;;14.80;;
11797;SDS011;5956;51.428;6.682;2024-01-10T14:30:00;21.50;;;15.63;;
11797;SDS011;5956;51.428;6.682;2024-01-10T14:32:28;23.63;;;14.87;;
11797;SDS011;5956;51.428;6.682;2024-01-10T14:34:54;21.73;;;15.17;;
11797;SDS011;5956;51.428;6.682;2024-01-10T14:37:22;22.87;;;14.73;;
11797;SDS011;5956;51.428;6.682;2024-01-10T14:39:48;22.70;;;14.70;;
11797;SDS011;5956;51.428;6.682;2024-01-10T14:42:17;19.47;;;13.63;;
11797;SDS011;5956;51.428;6.682;2024-01-10T14:44:45;24.03;;;14.77;;
11797;SDS011;5956;51.428;6.682;2024-01-10T14:47:11;19.53;;;14.30;;
11797;SDS011;5956;51.428;6.682;2024-01-10T14:49:38;20.73;;;15.03;;